Gaira Trader — HKUK5 — position and weather

sailwx.info

Track history (hours):
 
Tides and Currents Weather Stations Pressure Air Temp Water Temp Dewpoint Dewpoint Depression Visibility Wind Speed Wind Dir Waves Ship Positions

Gaira Trader

Last reported at 2017-Nov-11 16:10 UTC. Time now 2017-Nov-21 02:52 UTC.
Position N 11°11' W 074°50'.
Warning: this ship's position is 9 days out of date.

Length 80 m; draft 3.7 m.

Type: Cargo ship. MMSI: 730152360.

Date/timePositionNaut miles runAvg speedWind from/ knotsBaromVisibWave heightAir tempDewpointWater temp
2017-Nov-11 16:10N 11°11' W 074°50'3 8.6
2017-Nov-11 15:51N 11°10' W 074°53'3 8.0
2017-Nov-11 15:29N 11°09' W 074°55'4 8.5
2017-Nov-11 15:00N 11°07' W 074°59'44 8.3
2017-Nov-11 09:38N 10°38' W 075°33'1 8.2
2017-Nov-11 09:29N 10°37' W 075°34'11 8.2
2017-Nov-11 08:07N 10°26' W 075°37'1 8.0
2017-Nov-11 08:00N 10°25' W 075°38'4 7.9
2017-Nov-11 07:30N 10°21' W 075°37'3 6.6
2017-Nov-11 06:59N 10°19' W 075°34'2 4.9
2017-Nov-11 06:30N 10°19' W 075°32'0 0.0
2017-Nov-11 06:00N 10°19' W 075°32'0 0.1
2017-Nov-11 05:30N 10°19' W 075°32'0 0.0
2017-Nov-11 05:00N 10°19' W 075°32'0 0.0
2017-Nov-11 04:30N 10°19' W 075°32'0 0.0
2017-Nov-11 04:00N 10°19' W 075°32'0 0.0
2017-Nov-11 03:30N 10°19' W 075°32'0 0.0
2017-Nov-11 03:00N 10°19' W 075°32'0 0.0
2017-Nov-11 02:30N 10°19' W 075°32'0 0.0
2017-Nov-11 02:00N 10°19' W 075°32'0 0.0
2017-Nov-11 01:30N 10°19' W 075°32'0 0.0
2017-Nov-11 01:00N 10°19' W 075°32'0 0.0
2017-Nov-11 00:30N 10°19' W 075°32'0 0.0
2017-Nov-11 00:00N 10°19' W 075°32'2 4.3
2017-Nov-10 23:30N 10°19' W 075°34'4 8.1
2017-Nov-10 23:00N 10°20' W 075°38'4 8.1
2017-Nov-10 22:30N 10°22' W 075°42'4 8.1
2017-Nov-10 22:00N 10°24' W 075°45'  
Track history (hours):
 
Tides and Currents Weather Stations Pressure Air Temp Water Temp Dewpoint Dewpoint Depression Visibility Wind Speed Wind Dir Waves Ship Positions

Gaira Trader

Last reported at 2017-Nov-11 16:10 UTC. Time now 2017-Nov-21 02:52 UTC.
Position N 11°11' W 074°50'.
Warning: this ship's position is 9 days out of date.

Length 80 m; draft 3.7 m.

Type: Cargo ship. MMSI: 730152360.

Date/timePositionNaut miles runAvg speedWind from/ knotsBaromVisibWave heightAir tempDewpointWater temp
2017-Nov-11 16:10N 11°11' W 074°50'3 8.6
2017-Nov-11 15:51N 11°10' W 074°53'3 8.0
2017-Nov-11 15:29N 11°09' W 074°55'4 8.5
2017-Nov-11 15:00N 11°07' W 074°59'44 8.3
2017-Nov-11 09:38N 10°38' W 075°33'1 8.2
2017-Nov-11 09:29N 10°37' W 075°34'11 8.2
2017-Nov-11 08:07N 10°26' W 075°37'1 8.0
2017-Nov-11 08:00N 10°25' W 075°38'4 7.9
2017-Nov-11 07:30N 10°21' W 075°37'3 6.6
2017-Nov-11 06:59N 10°19' W 075°34'2 4.9
2017-Nov-11 06:30N 10°19' W 075°32'0 0.0
2017-Nov-11 06:00N 10°19' W 075°32'0 0.1
2017-Nov-11 05:30N 10°19' W 075°32'0 0.0
2017-Nov-11 05:00N 10°19' W 075°32'0 0.0
2017-Nov-11 04:30N 10°19' W 075°32'0 0.0
2017-Nov-11 04:00N 10°19' W 075°32'0 0.0
2017-Nov-11 03:30N 10°19' W 075°32'0 0.0
2017-Nov-11 03:00N 10°19' W 075°32'0 0.0
2017-Nov-11 02:30N 10°19' W 075°32'0 0.0
2017-Nov-11 02:00N 10°19' W 075°32'0 0.0
2017-Nov-11 01:30N 10°19' W 075°32'0 0.0
2017-Nov-11 01:00N 10°19' W 075°32'0 0.0
2017-Nov-11 00:30N 10°19' W 075°32'0 0.0
2017-Nov-11 00:00N 10°19' W 075°32'2 4.3
2017-Nov-10 23:30N 10°19' W 075°34'4 8.1
2017-Nov-10 23:00N 10°20' W 075°38'4 8.1
2017-Nov-10 22:30N 10°22' W 075°42'4 8.1
2017-Nov-10 22:00N 10°24' W 075°45'  

Dump ship's entire track history